Accueil
METAR-TAF:

METAR-TAF

Aéroports :

Londres Biggin Hill, Angleterre

Aérodrome de Londres Biggin Hill

latitude: 51-19N, longitude: 000-02E, altitude: 183 m

Observation

Le bulletin a été fait il y a 27 minutes, à 18:50 UTC
Vent 12 kt de sud/sud-ouest
Température 9°C
Humidité 76%
Pression 1015 hPa
Visibilité 10 km ou plus
Quelques nuages à une hauteur de 4500 ft

METAR: EGKB 261850Z 21012KT 9999 FEW045 09/05 Q1015

Heure: 20:17 (19:17 UTC)

Prévision

Le bulletin a été fait il y a 2 heures et 13 minutes, à 17:04 UTC
Prévision valable du 26 à 18 UTC au 26 à 22 UTC
Vent 13 kt de ouest/sud-ouest
Visibilité 10 km ou plus
Nuages épars à une hauteur de 3000 ft

TAF: EGKB 261704Z 2618/2622 24013KT 9999 SCT030

Observations et prévisions météorologiques de plus de 4000 aéroports (messages METAR et TAF).

Les stations disponibles sont représentées par des disques jaunes et rouges sur la carte.

Passer la souris dessus pour voir le nom de la station.

Cliquer dessus pour voir les observations et prévisions météorologiques.

Pour changer de carte: cliquez sur les boutons verts avec une croix noire pour zoomer, sur le bouton vert avec un tiret pour effectuer un zoom arrière, ou sur les flèches vertes pour les cartes adjacentes.


METAR-TAF: